Terminal Aerodrome Forecast
Issued by NWS

Home | Current Version | Previous Version | Text Only | Print | Product List | Glossary On
Versions: 1 2 3 4 5 6 7 8 9 10 11 12 13 14 15 16 17 18 19 20 21
380
FTUS44 KTSA 221347 AAA
TAFFYV
TAF AMD
KFYV 221347Z 2214/2312 06005KT P6SM SCT005 BKN040
      TEMPO 2214/2217 BKN005
     FM221700 14005KT P6SM OVC012
     FM222100 18005KT 3SM -RA OVC015
     FM230300 VRB03KT 3SM BR OVC005
     FM230800 VRB03KT 2SM BR OVC003=

USA.gov is the U.S. government's official web portal to all federal, state and local government web resources and services.